Fairbank, Illinois
Current Conditions -  °F | °C
As of 8:54 AM on Sunday 23 Nov 2014 (Local Time) from KMLI Reporting Station
Moderate Rain Moderate Rain  
Wind Chill: 51°   Ceiling: 4300
Heat Index: 51°   Visibility: 3mi
Dew Point: 48°   Wind: 9mph
Humidity: 89%   Direction: 180°S
Pressure: 29.62"   Gusts: NA
Location:  41.4828°N, 90.1801°W
Report Text: KMLI 231454Z 18008KT 3SM RA BR SCT010 BKN043 OVC080 11/09 A2962 RMK AO2 P0001 T01060089 $
Loading
Personal Weather Stations






























Interactive Weather Map New forecast layout! Learn more

10-Day Weather Forecast

Advertisements
Track Severe Weather on mobile